Lake Oke West End current weather conditions

sailwx.info

Wind from 170 at 12 knots gusting 14

Air temperature 30.1° C
Dewpoint 24.1° C
Water temperature -7999.0° C

Last reported at 2019-Jul-16 23:45 UTC.
Time now 2019-Jul-17 00:27 UTC

Location: N 26°58' W 080°56'.
View on Google Maps.

See reports from other nearby stations

  
Tides and Currents Weather Stations Pressure Air Temp Water Temp Dewpoint Dewpoint Depression Visibility Wind Speed Wind Dir Waves Ship Positions
date/time (UTC)wind fromknots sea level pressurealtimeterstation pressurevisibilityair tempwater tempwave heightnotes
2019-Jul-16 23:45 170 12 gusting 14 30.1-7999.0
2019-Jul-16 23:30 126 12 gusting 14 30.5-7999.0
2019-Jul-16 23:15 117 11 gusting 13 30.5-7999.0
2019-Jul-16 22:45 110 9 gusting 10 30.5-7999.0
2019-Jul-16 22:30 102 9 gusting 11 30.5-7999.0
2019-Jul-16 22:15 099 9 gusting 10 30.4-7999.0
2019-Jul-16 21:45 093 8 gusting 9 30.2-7999.0
2019-Jul-16 21:30 100 6 gusting 8 29.9-7999.0
2019-Jul-16 21:15 109 7 gusting 8 29.8-7999.0
2019-Jul-16 20:45 126 11 gusting 13 29.4-7999.0
2019-Jul-16 20:30 122 14 gusting 16 28.9-7999.0
2019-Jul-16 20:15 113 14 gusting 16 29.0-7999.0
2019-Jul-16 19:45 091 11 gusting 19 30.2-7999.0
2019-Jul-16 19:30 100 6 gusting 8 30.4-7999.0
2019-Jul-16 19:15 101 6 gusting 9 30.9-7999.0
2019-Jul-16 18:45 091 1 gusting 2 31.3-7999.0
2019-Jul-16 18:30 088 1 gusting 2 30.7-7999.0
2019-Jul-16 18:15 065 2 gusting 4 30.3-7999.0
2019-Jul-16 17:45 056 2 gusting 3 30.1-7999.0
2019-Jul-16 17:30 098 3 gusting 4 30.1-7999.0
2019-Jul-16 17:15 098 2 gusting 4 29.8-7999.0
2019-Jul-16 16:45 103 5 gusting 6 29.5-7999.0
2019-Jul-16 16:30 103 5 gusting 6 29.4-7999.0
2019-Jul-16 16:15 113 4 gusting 6 29.4-7999.0
2019-Jul-16 15:45 115 5 gusting 7 29.3-7999.0
2019-Jul-16 15:30 121 6 gusting 7 29.2-7999.0
2019-Jul-16 15:15 116 6 gusting 8 29.1-7999.0
2019-Jul-16 14:45 122 6 gusting 8 29.0-7999.0
2019-Jul-16 14:30 131 5 gusting 6 29.1-7999.0
2019-Jul-16 14:15 126 5 gusting 7 28.9-7999.0
2019-Jul-16 13:45 124 6 gusting 8 28.7-7999.0
2019-Jul-16 13:30 123 5 gusting 7 28.7-7999.0
2019-Jul-16 13:15 126 6 gusting 8 28.7-7999.0
2019-Jul-16 12:45 114 6 gusting 7 28.8-7999.0
2019-Jul-16 12:30 117 6 gusting 8 28.6-7999.0
2019-Jul-16 12:15 117 6 gusting 7 28.4-7999.0
2019-Jul-16 11:45 126 6 gusting 7 28.4-7999.0
2019-Jul-16 11:30 118 5 gusting 8 28.4-7999.0
2019-Jul-16 11:15 124 6 gusting 7 28.2-7999.0
2019-Jul-16 10:45 120 7 gusting 9 28.0-7999.0
2019-Jul-16 10:30 118 5 gusting 7 28.1-7999.0
2019-Jul-16 10:15 110 6 gusting 8 28.1-7999.0
2019-Jul-16 09:45 108 6 gusting 8 28.1-7999.0
2019-Jul-16 09:30 102 6 gusting 7 28.1-7999.0
2019-Jul-16 09:15 101 7 gusting 9 28.1-7999.0
2019-Jul-16 08:45 092 7 gusting 9 28.3-7999.0
2019-Jul-16 08:30 093 7 gusting 9 28.3-7999.0
2019-Jul-16 08:15 096 7 gusting 9 28.3-7999.0
2019-Jul-16 07:45 101 7 gusting 8 28.3-7999.0
2019-Jul-16 07:30 109 7 gusting 9 28.3-7999.0
2019-Jul-16 07:15 122 7 gusting 9 28.3-7999.0
2019-Jul-16 06:45 117 8 gusting 9 28.4-7999.0
2019-Jul-16 06:30 122 8 gusting 10 28.4-7999.0
2019-Jul-16 06:15 117 8 gusting 9 28.4-7999.0
2019-Jul-16 05:45 127 7 gusting 9 28.5-7999.0
2019-Jul-16 05:30 128 9 gusting 10 28.6-7999.0
2019-Jul-16 05:15 126 9 gusting 11 28.6-7999.0
2019-Jul-16 04:45 120 10 gusting 11 28.7-7999.0
2019-Jul-16 04:30 118 10 gusting 11 28.8-7999.0
2019-Jul-16 04:15 117 10 gusting 13 28.8-7999.0
2019-Jul-16 03:45 112 11 gusting 13 28.9-7999.0
2019-Jul-16 03:30 109 11 gusting 13 28.9-7999.0
2019-Jul-16 03:15 109 12 gusting 14 29.0-7999.0
2019-Jul-16 02:45 104 14 gusting 15 29.1-7999.0
2019-Jul-16 02:30 102 14 gusting 16 29.3-7999.0
2019-Jul-16 02:15 098 14 gusting 16 29.5-7999.0
2019-Jul-16 01:45 091 14 gusting 16 29.8-7999.0
2019-Jul-16 01:30 089 14 gusting 16 30.0-7999.0
2019-Jul-16 01:15 099 13 gusting 15 30.3-7999.0
2019-Jul-16 00:45 113 13 gusting 15 30.5-7999.0
2019-Jul-16 00:30 114 12 gusting 14 30.8-7999.0
2019-Jul-16 00:15 114 11 gusting 14 30.9-7999.0
2019-Jul-15 23:45 123 11 gusting 13 31.5-7999.0
2019-Jul-15 23:30 120 11 gusting 12 31.6-7999.0
2019-Jul-15 23:15 123 10 gusting 12 31.9-7999.0
2019-Jul-15 22:45 119 8 gusting 10 32.2-7999.0
2019-Jul-15 22:30 119 8 gusting 9 32.3-7999.0
2019-Jul-15 22:15 122 8 gusting 10 32.2-7999.0
2019-Jul-15 21:45 116 6 gusting 7 32.0-7999.0
2019-Jul-15 21:30 118 7 gusting 9 32.0-7999.0
2019-Jul-15 21:15 123 7 gusting 9 31.9-7999.0
2019-Jul-15 20:45 126 8 gusting 9 31.7-7999.0
2019-Jul-15 20:30 124 7 gusting 9 31.8-7999.0
2019-Jul-15 20:15 132 6 gusting 8 31.6-7999.0
2019-Jul-15 19:45 130 5 gusting 7 31.5-7999.0
2019-Jul-15 19:30 116 5 gusting 7 31.4-7999.0
2019-Jul-15 19:15 115 2 gusting 5 31.5-7999.0
2019-Jul-15 18:45 130 1 gusting 3 30.7-7999.0
2019-Jul-15 18:30 121 1 gusting 2 30.8-7999.0
2019-Jul-15 18:15 085 1 gusting 2 30.5-7999.0
2019-Jul-15 17:45 101 2 gusting 3 30.4-7999.0
2019-Jul-15 17:30 073 1 gusting 2 30.1-7999.0
2019-Jul-15 17:15 097 1 gusting 3 30.2-7999.0
2019-Jul-15 16:45 131 3 gusting 4 29.9-7999.0
2019-Jul-15 16:30 124 4 gusting 5 29.7-7999.0
2019-Jul-15 16:15 122 5 gusting 6 29.4-7999.0
2019-Jul-15 15:45 126 7 gusting 8 29.1-7999.0
2019-Jul-15 15:30 126 7 gusting 9 29.0-7999.0
2019-Jul-15 15:15 124 7 gusting 9 28.9-7999.0
2019-Jul-15 14:45 128 7 gusting 9 28.8-7999.0
2019-Jul-15 14:30 124 7 gusting 9 28.7-7999.0
2019-Jul-15 14:15 122 7 gusting 8 28.7-7999.0
2019-Jul-15 13:45 107 7 gusting 8 28.6-7999.0
2019-Jul-15 13:30 116 6 gusting 7 28.5-7999.0
2019-Jul-15 13:15 119 7 gusting 9 28.5-7999.0
2019-Jul-15 12:45 108 7 gusting 9 28.4-7999.0
2019-Jul-15 12:30 105 7 gusting 9 28.2-7999.0
2019-Jul-15 12:15 098 8 gusting 9 28.3-7999.0
2019-Jul-15 11:45 095 7 gusting 9 28.3-7999.0
2019-Jul-15 11:30 089 7 gusting 9 28.2-7999.0
2019-Jul-15 11:15 095 7 gusting 9 28.2-7999.0
2019-Jul-15 10:45 104 8 gusting 9 28.1-7999.0
2019-Jul-15 10:30 111 8 gusting 10 28.2-7999.0
2019-Jul-15 10:15 115 8 gusting 9 28.2-7999.0
2019-Jul-15 09:45 119 9 gusting 11 28.2-7999.0
2019-Jul-15 09:30 128 10 gusting 12 28.2-7999.0
2019-Jul-15 09:15 126 10 gusting 12 28.2-7999.0
2019-Jul-15 08:45 124 10 gusting 12 28.3-7999.0
2019-Jul-15 08:30 124 10 gusting 12 28.4-7999.0
2019-Jul-15 08:15 121 10 gusting 12 28.4-7999.0
2019-Jul-15 07:45 111 9 gusting 12 28.5-7999.0
2019-Jul-15 07:30 111 10 gusting 12 28.3-7999.0
2019-Jul-15 07:15 114 10 gusting 11 28.4-7999.0
2019-Jul-15 06:45 108 11 gusting 13 28.5-7999.0
2019-Jul-15 06:30 109 12 gusting 13 28.5-7999.0
2019-Jul-15 06:15 110 12 gusting 14 28.6-7999.0
2019-Jul-15 05:45 107 11 gusting 13 28.6-7999.0
2019-Jul-15 05:30 107 12 gusting 13 28.6-7999.0
2019-Jul-15 05:15 105 11 gusting 13 28.6-7999.0
2019-Jul-15 04:45 107 12 gusting 14 28.7-7999.0
2019-Jul-15 04:30 107 12 gusting 14 28.8-7999.0
2019-Jul-15 04:15 107 13 gusting 14 28.9-7999.0
2019-Jul-15 04:00 109 13 gusting 15 28.8-7999.0
2019-Jul-15 03:45 110 13 gusting 14 28.9-7999.0
2019-Jul-15 03:30 109 13 gusting 15 28.9-7999.0
2019-Jul-15 03:15 106 12 gusting 13 29.0-7999.0
2019-Jul-15 02:45 100 13 gusting 15 29.1-7999.0
2019-Jul-15 02:30 098 13 gusting 14 29.1-7999.0
2019-Jul-15 02:15 099 13 gusting 14 29.2-7999.0
2019-Jul-15 01:45 099 13 gusting 14 29.5-7999.0
2019-Jul-15 01:30 099 12 gusting 14 29.7-7999.0
2019-Jul-15 01:15 098 12 gusting 14 29.8-7999.0
2019-Jul-15 00:45 094 14 gusting 15 30.0-7999.0
2019-Jul-15 00:30 091 14 gusting 15 30.1-7999.0
2019-Jul-15 00:15 094 14 gusting 17 30.3-7999.0